sensor_id;sensor_type;location;lat;lon;timestamp;P1;durP1;ratioP1;P2;durP2;ratioP2
39918;SDS011;25589;51.552;13.424;2022-10-17T00:00:41;3.90;;;2.60;;
39918;SDS011;25589;51.552;13.424;2022-10-17T00:03:07;4.70;;;2.88;;
39918;SDS011;25589;51.552;13.424;2022-10-17T00:05:33;7.40;;;2.53;;
39918;SDS011;25589;51.552;13.424;2022-10-17T00:08:02;5.93;;;2.65;;
39918;SDS011;25589;51.552;13.424;2022-10-17T00:10:28;5.75;;;2.60;;
39918;SDS011;25589;51.552;13.424;2022-10-17T00:12:54;5.57;;;2.60;;
39918;SDS011;25589;51.552;13.424;2022-10-17T00:15:20;5.00;;;2.90;;
39918;SDS011;25589;51.552;13.424;2022-10-17T00:17:46;8.85;;;2.35;;
39918;SDS011;25589;51.552;13.424;2022-10-17T00:20:12;7.13;;;2.92;;
39918;SDS011;25589;51.552;13.424;2022-10-17T00:22:38;5.32;;;2.95;;
39918;SDS011;25589;51.552;13.424;2022-10-17T00:25:04;3.15;;;2.70;;
39918;SDS011;25589;51.552;13.424;2022-10-17T00:27:30;3.75;;;2.47;;
39918;SDS011;25589;51.552;13.424;2022-10-17T00:29:59;5.47;;;2.60;;
39918;SDS011;25589;51.552;13.424;2022-10-17T00:32:25;3.50;;;2.75;;
39918;SDS011;25589;51.552;13.424;2022-10-17T00:34:50;5.55;;;2.80;;
39918;SDS011;25589;51.552;13.424;2022-10-17T00:37:16;5.35;;;2.55;;
39918;SDS011;25589;51.552;13.424;2022-10-17T00:39:42;3.58;;;2.80;;
39918;SDS011;25589;51.552;13.424;2022-10-17T00:42:09;6.32;;;2.95;;
39918;SDS011;25589;51.552;13.424;2022-10-17T00:47:07;5.95;;;3.08;;
39918;SDS011;25589;51.552;13.424;2022-10-17T00:49:38;3.97;;;2.78;;
39918;SDS011;25589;51.552;13.424;2022-10-17T00:52:05;4.47;;;2.80;;
39918;SDS011;25589;51.552;13.424;2022-10-17T00:54:53;3.20;;;2.80;;
39918;SDS011;25589;51.552;13.424;2022-10-17T00:57:22;2.50;;;2.30;;
39918;SDS011;25589;51.552;13.424;2022-10-17T00:59:50;4.38;;;2.50;;
39918;SDS011;25589;51.552;13.424;2022-10-17T01:02:20;5.25;;;3.17;;
39918;SDS011;25589;51.552;13.424;2022-10-17T01:04:47;4.00;;;2.95;;
39918;SDS011;25589;51.552;13.424;2022-10-17T01:07:14;5.47;;;2.90;;
39918;SDS011;25589;51.552;13.424;2022-10-17T01:09:40;6.32;;;3.08;;
39918;SDS011;25589;51.552;13.424;2022-10-17T01:12:19;7.82;;;3.05;;
39918;SDS011;25589;51.552;13.424;2022-10-17T01:14:52;6.38;;;3.10;;
39918;SDS011;25589;51.552;13.424;2022-10-17T01:17:44;3.45;;;2.90;;
39918;SDS011;25589;51.552;13.424;2022-10-17T01:28:55;6.18;;;3.50;;
39918;SDS011;25589;51.552;13.424;2022-10-17T01:31:31;3.95;;;3.45;;
39918;SDS011;25589;51.552;13.424;2022-10-17T01:34:08;4.53;;;2.95;;
39918;SDS011;25589;51.552;13.424;2022-10-17T01:36:55;4.30;;;3.10;;
39918;SDS011;25589;51.552;13.424;2022-10-17T01:42:32;3.90;;;2.80;;
39918;SDS011;25589;51.552;13.424;2022-10-17T01:45:20;5.13;;;3.15;;
39918;SDS011;25589;51.552;13.424;2022-10-17T01:47:54;6.07;;;3.38;;
39918;SDS011;25589;51.552;13.424;2022-10-17T01:50:26;5.05;;;3.00;;
39918;SDS011;25589;51.552;13.424;2022-10-17T01:52:58;5.80;;;3.00;;
39918;SDS011;25589;51.552;13.424;2022-10-17T01:55:40;4.60;;;3.03;;
39918;SDS011;25589;51.552;13.424;2022-10-17T02:01:29;6.47;;;2.80;;
39918;SDS011;25589;51.552;13.424;2022-10-17T02:03:58;4.65;;;3.08;;
39918;SDS011;25589;51.552;13.424;2022-10-17T02:06:26;4.78;;;3.00;;
39918;SDS011;25589;51.552;13.424;2022-10-17T02:08:51;3.85;;;2.92;;
39918;SDS011;25589;51.552;13.424;2022-10-17T02:11:19;4.53;;;3.50;;
39918;SDS011;25589;51.552;13.424;2022-10-17T02:16:55;3.88;;;3.10;;
39918;SDS011;25589;51.552;13.424;2022-10-17T02:19:43;3.53;;;3.08;;
39918;SDS011;25589;51.552;13.424;2022-10-17T02:24:51;5.88;;;3.00;;
39918;SDS011;25589;51.552;13.424;2022-10-17T02:29:58;7.10;;;2.92;;
39918;SDS011;25589;51.552;13.424;2022-10-17T02:35:08;8.32;;;4.32;;
39918;SDS011;25589;51.552;13.424;2022-10-17T02:37:37;4.20;;;3.38;;
39918;SDS011;25589;51.552;13.424;2022-10-17T02:40:04;5.00;;;3.13;;
39918;SDS011;25589;51.552;13.424;2022-10-17T02:42:36;6.32;;;2.90;;
39918;SDS011;25589;51.552;13.424;2022-10-17T02:45:02;5.68;;;3.25;;
39918;SDS011;25589;51.552;13.424;2022-10-17T02:47:36;3.30;;;3.00;;
39918;SDS011;25589;51.552;13.424;2022-10-17T02:50:04;6.57;;;2.70;;
39918;SDS011;25589;51.552;13.424;2022-10-17T02:52:34;4.20;;;2.58;;
39918;SDS011;25589;51.552;13.424;2022-10-17T02:55:10;4.93;;;2.78;;
39918;SDS011;25589;51.552;13.424;2022-10-17T02:57:41;6.13;;;2.80;;
39918;SDS011;25589;51.552;13.424;2022-10-17T03:00:12;6.30;;;3.10;;
39918;SDS011;25589;51.552;13.424;2022-10-17T03:02:41;3.15;;;2.83;;
39918;SDS011;25589;51.552;13.424;2022-10-17T03:05:10;6.80;;;3.10;;
39918;SDS011;25589;51.552;13.424;2022-10-17T03:07:37;6.20;;;2.70;;
39918;SDS011;25589;51.552;13.424;2022-10-17T03:10:03;5.65;;;2.45;;
39918;SDS011;25589;51.552;13.424;2022-10-17T03:12:29;4.70;;;2.85;;
39918;SDS011;25589;51.552;13.424;2022-10-17T03:14:56;6.03;;;3.05;;
39918;SDS011;25589;51.552;13.424;2022-10-17T03:17:22;6.35;;;2.83;;
39918;SDS011;25589;51.552;13.424;2022-10-17T03:19:48;8.90;;;3.00;;
39918;SDS011;25589;51.552;13.424;2022-10-17T03:22:13;5.82;;;3.30;;
39918;SDS011;25589;51.552;13.424;2022-10-17T03:24:41;4.57;;;2.88;;
39918;SDS011;25589;51.552;13.424;2022-10-17T03:27:07;4.25;;;3.03;;
39918;SDS011;25589;51.552;13.424;2022-10-17T03:29:32;8.23;;;3.78;;
39918;SDS011;25589;51.552;13.424;2022-10-17T03:31:59;4.63;;;3.10;;
39918;SDS011;25589;51.552;13.424;2022-10-17T03:34:24;5.60;;;3.33;;
39918;SDS011;25589;51.552;13.424;2022-10-17T03:36:50;5.03;;;3.13;;
39918;SDS011;25589;51.552;13.424;2022-10-17T03:39:17;4.35;;;3.45;;
39918;SDS011;25589;51.552;13.424;2022-10-17T03:41:43;7.72;;;3.13;;
39918;SDS011;25589;51.552;13.424;2022-10-17T03:44:08;4.55;;;3.33;;
39918;SDS011;25589;51.552;13.424;2022-10-17T03:46:34;7.00;;;3.20;;
39918;SDS011;25589;51.552;13.424;2022-10-17T03:49:00;7.80;;;3.80;;
39918;SDS011;25589;51.552;13.424;2022-10-17T03:51:26;3.00;;;2.80;;
39918;SDS011;25589;51.552;13.424;2022-10-17T03:53:58;3.95;;;3.05;;
39918;SDS011;25589;51.552;13.424;2022-10-17T03:56:25;4.68;;;3.60;;
39918;SDS011;25589;51.552;13.424;2022-10-17T03:58:57;4.50;;;3.63;;
39918;SDS011;25589;51.552;13.424;2022-10-17T04:01:23;4.63;;;3.75;;
39918;SDS011;25589;51.552;13.424;2022-10-17T04:03:49;69.65;;;51.75;;
39918;SDS011;25589;51.552;13.424;2022-10-17T04:06:16;5.20;;;4.70;;
39918;SDS011;25589;51.552;13.424;2022-10-17T04:08:42;28.88;;;26.30;;
39918;SDS011;25589;51.552;13.424;2022-10-17T04:11:13;8.00;;;5.57;;
39918;SDS011;25589;51.552;13.424;2022-10-17T04:13:41;4.72;;;3.20;;
39918;SDS011;25589;51.552;13.424;2022-10-17T04:16:09;6.18;;;3.17;;
39918;SDS011;25589;51.552;13.424;2022-10-17T04:18:51;4.55;;;3.30;;
39918;SDS011;25589;51.552;13.424;2022-10-17T04:21:25;6.95;;;3.67;;
39918;SDS011;25589;51.552;13.424;2022-10-17T04:23:53;5.00;;;3.15;;
39918;SDS011;25589;51.552;13.424;2022-10-17T04:26:57;11.35;;;4.65;;
39918;SDS011;25589;51.552;13.424;2022-10-17T04:29:26;4.35;;;3.47;;
39918;SDS011;25589;51.552;13.424;2022-10-17T04:32:00;7.70;;;4.72;;
39918;SDS011;25589;51.552;13.424;2022-10-17T04:34:33;10.07;;;8.90;;
39918;SDS011;25589;51.552;13.424;2022-10-17T04:36:59;10.75;;;7.55;;
39918;SDS011;25589;51.552;13.424;2022-10-17T04:39:25;10.60;;;9.65;;
39918;SDS011;25589;51.552;13.424;2022-10-17T04:41:51;12.82;;;8.20;;
39918;SDS011;25589;51.552;13.424;2022-10-17T04:44:16;7.80;;;5.20;;
39918;SDS011;25589;51.552;13.424;2022-10-17T04:46:48;6.68;;;4.13;;
39918;SDS011;25589;51.552;13.424;2022-10-17T04:49:13;19.83;;;17.38;;
39918;SDS011;25589;51.552;13.424;2022-10-17T04:51:44;9.90;;;8.23;;
39918;SDS011;25589;51.552;13.424;2022-10-17T04:54:17;10.65;;;4.60;;
39918;SDS011;25589;51.552;13.424;2022-10-17T04:56:46;6.95;;;5.65;;
39918;SDS011;25589;51.552;13.424;2022-10-17T04:59:12;8.00;;;5.45;;
39918;SDS011;25589;51.552;13.424;2022-10-17T05:01:39;7.38;;;4.80;;
39918;SDS011;25589;51.552;13.424;2022-10-17T05:04:05;9.60;;;5.82;;
39918;SDS011;25589;51.552;13.424;2022-10-17T05:06:31;10.20;;;5.70;;
39918;SDS011;25589;51.552;13.424;2022-10-17T05:09:15;6.38;;;4.03;;
39918;SDS011;25589;51.552;13.424;2022-10-17T05:11:42;9.73;;;5.22;;
39918;SDS011;25589;51.552;13.424;2022-10-17T05:14:08;6.40;;;4.90;;
39918;SDS011;25589;51.552;13.424;2022-10-17T05:16:34;11.98;;;7.82;;
39918;SDS011;25589;51.552;13.424;2022-10-17T05:19:00;24.50;;;17.52;;
39918;SDS011;25589;51.552;13.424;2022-10-17T05:21:30;15.00;;;8.70;;
39918;SDS011;25589;51.552;13.424;2022-10-17T05:23:56;9.40;;;5.82;;
39918;SDS011;25589;51.552;13.424;2022-10-17T05:26:22;16.02;;;10.60;;
39918;SDS011;25589;51.552;13.424;2022-10-17T05:28:48;15.65;;;12.68;;
39918;SDS011;25589;51.552;13.424;2022-10-17T05:31:17;14.00;;;10.50;;
39918;SDS011;25589;51.552;13.424;2022-10-17T05:33:43;13.85;;;10.73;;
39918;SDS011;25589;51.552;13.424;2022-10-17T05:36:09;13.13;;;9.43;;
39918;SDS011;25589;51.552;13.424;2022-10-17T05:38:35;12.95;;;8.90;;
39918;SDS011;25589;51.552;13.424;2022-10-17T05:41:01;13.90;;;9.23;;
39918;SDS011;25589;51.552;13.424;2022-10-17T05:43:29;17.00;;;7.65;;
39918;SDS011;25589;51.552;13.424;2022-10-17T05:45:55;13.00;;;9.63;;
39918;SDS011;25589;51.552;13.424;2022-10-17T05:48:21;11.45;;;8.85;;
39918;SDS011;25589;51.552;13.424;2022-10-17T05:50:49;15.43;;;10.07;;
39918;SDS011;25589;51.552;13.424;2022-10-17T05:53:21;16.00;;;9.47;;
39918;SDS011;25589;51.552;13.424;2022-10-17T05:55:56;19.25;;;10.35;;
39918;SDS011;25589;51.552;13.424;2022-10-17T05:58:23;16.20;;;10.82;;
39918;SDS011;25589;51.552;13.424;2022-10-17T06:00:57;15.18;;;10.65;;
39918;SDS011;25589;51.552;13.424;2022-10-17T06:03:24;14.88;;;10.00;;
39918;SDS011;25589;51.552;13.424;2022-10-17T06:05:49;16.17;;;11.13;;
39918;SDS011;25589;51.552;13.424;2022-10-17T06:08:17;17.05;;;10.95;;
39918;SDS011;25589;51.552;13.424;2022-10-17T06:10:45;24.67;;;15.77;;
39918;SDS011;25589;51.552;13.424;2022-10-17T06:13:12;23.48;;;17.73;;
39918;SDS011;25589;51.552;13.424;2022-10-17T06:15:38;23.15;;;20.65;;
39918;SDS011;25589;51.552;13.424;2022-10-17T06:18:06;20.70;;;14.43;;
39918;SDS011;25589;51.552;13.424;2022-10-17T06:20:32;25.52;;;22.85;;
39918;SDS011;25589;51.552;13.424;2022-10-17T06:22:57;19.80;;;14.73;;
39918;SDS011;25589;51.552;13.424;2022-10-17T06:25:37;18.08;;;14.80;;
39918;SDS011;25589;51.552;13.424;2022-10-17T06:28:02;17.85;;;12.63;;
39918;SDS011;25589;51.552;13.424;2022-10-17T06:30:28;17.27;;;12.25;;
39918;SDS011;25589;51.552;13.424;2022-10-17T06:32:54;17.25;;;11.82;;
39918;SDS011;25589;51.552;13.424;2022-10-17T06:35:20;18.13;;;12.00;;
39918;SDS011;25589;51.552;13.424;2022-10-17T06:37:46;18.20;;;12.18;;
39918;SDS011;25589;51.552;13.424;2022-10-17T06:40:12;17.70;;;11.80;;
39918;SDS011;25589;51.552;13.424;2022-10-17T06:42:39;19.33;;;10.93;;
39918;SDS011;25589;51.552;13.424;2022-10-17T06:45:11;19.90;;;12.20;;
39918;SDS011;25589;51.552;13.424;2022-10-17T06:48:06;20.08;;;12.48;;
39918;SDS011;25589;51.552;13.424;2022-10-17T06:50:42;20.73;;;13.32;;
39918;SDS011;25589;51.552;13.424;2022-10-17T06:53:34;17.95;;;12.32;;
39918;SDS011;25589;51.552;13.424;2022-10-17T06:56:19;20.85;;;13.15;;
39918;SDS011;25589;51.552;13.424;2022-10-17T06:59:04;15.32;;;10.82;;
39918;SDS011;25589;51.552;13.424;2022-10-17T07:01:34;17.05;;;12.25;;
39918;SDS011;25589;51.552;13.424;2022-10-17T07:04:02;17.50;;;11.98;;
39918;SDS011;25589;51.552;13.424;2022-10-17T07:06:29;17.80;;;12.50;;
39918;SDS011;25589;51.552;13.424;2022-10-17T07:08:58;17.42;;;13.10;;
39918;SDS011;25589;51.552;13.424;2022-10-17T07:11:25;25.63;;;18.92;;
39918;SDS011;25589;51.552;13.424;2022-10-17T07:13:51;43.03;;;32.97;;
39918;SDS011;25589;51.552;13.424;2022-10-17T07:16:17;24.42;;;19.27;;
39918;SDS011;25589;51.552;13.424;2022-10-17T07:18:47;21.33;;;15.40;;
39918;SDS011;25589;51.552;13.424;2022-10-17T07:21:15;22.20;;;16.92;;
39918;SDS011;25589;51.552;13.424;2022-10-17T07:23:42;21.33;;;16.02;;
39918;SDS011;25589;51.552;13.424;2022-10-17T07:26:09;19.38;;;14.23;;
39918;SDS011;25589;51.552;13.424;2022-10-17T07:28:39;40.30;;;28.90;;
39918;SDS011;25589;51.552;13.424;2022-10-17T07:31:19;25.52;;;18.77;;
39918;SDS011;25589;51.552;13.424;2022-10-17T07:33:47;62.03;;;42.20;;
39918;SDS011;25589;51.552;13.424;2022-10-17T07:36:13;33.63;;;24.63;;
39918;SDS011;25589;51.552;13.424;2022-10-17T07:38:39;39.03;;;26.15;;
39918;SDS011;25589;51.552;13.424;2022-10-17T07:41:07;59.15;;;36.92;;
39918;SDS011;25589;51.552;13.424;2022-10-17T07:43:35;47.95;;;29.27;;
39918;SDS011;25589;51.552;13.424;2022-10-17T07:46:02;32.15;;;21.13;;
39918;SDS011;25589;51.552;13.424;2022-10-17T07:48:28;33.90;;;23.48;;
39918;SDS011;25589;51.552;13.424;2022-10-17T07:50:54;28.45;;;19.42;;
39918;SDS011;25589;51.552;13.424;2022-10-17T07:53:20;32.13;;;20.92;;
39918;SDS011;25589;51.552;13.424;2022-10-17T07:55:46;33.97;;;21.15;;
39918;SDS011;25589;51.552;13.424;2022-10-17T07:58:13;20.58;;;15.00;;
39918;SDS011;25589;51.552;13.424;2022-10-17T08:00:39;21.08;;;14.00;;
39918;SDS011;25589;51.552;13.424;2022-10-17T08:03:05;23.42;;;14.63;;
39918;SDS011;25589;51.552;13.424;2022-10-17T08:05:31;24.02;;;14.10;;
39918;SDS011;25589;51.552;13.424;2022-10-17T08:07:58;21.77;;;13.75;;
39918;SDS011;25589;51.552;13.424;2022-10-17T08:10:24;19.63;;;13.50;;
39918;SDS011;25589;51.552;13.424;2022-10-17T08:12:55;21.55;;;13.00;;
39918;SDS011;25589;51.552;13.424;2022-10-17T08:15:21;18.30;;;13.20;;
39918;SDS011;25589;51.552;13.424;2022-10-17T08:17:47;20.83;;;14.43;;
39918;SDS011;25589;51.552;13.424;2022-10-17T08:20:13;17.83;;;13.25;;
39918;SDS011;25589;51.552;13.424;2022-10-17T08:22:39;18.67;;;13.43;;
39918;SDS011;25589;51.552;13.424;2022-10-17T08:25:05;17.27;;;12.77;;
39918;SDS011;25589;51.552;13.424;2022-10-17T08:27:31;23.00;;;15.07;;
39918;SDS011;25589;51.552;13.424;2022-10-17T08:29:57;20.88;;;14.95;;
39918;SDS011;25589;51.552;13.424;2022-10-17T08:32:25;20.02;;;13.55;;
39918;SDS011;25589;51.552;13.424;2022-10-17T08:34:52;18.50;;;13.77;;
39918;SDS011;25589;51.552;13.424;2022-10-17T08:37:17;20.75;;;14.77;;
39918;SDS011;25589;51.552;13.424;2022-10-17T08:39:43;21.13;;;14.38;;
39918;SDS011;25589;51.552;13.424;2022-10-17T08:45:12;19.63;;;13.98;;
39918;SDS011;25589;51.552;13.424;2022-10-17T08:48:00;20.23;;;14.32;;
39918;SDS011;25589;51.552;13.424;2022-10-17T08:56:12;20.15;;;13.75;;
39918;SDS011;25589;51.552;13.424;2022-10-17T08:58:42;23.00;;;14.32;;
39918;SDS011;25589;51.552;13.424;2022-10-17T09:01:11;23.20;;;14.88;;
39918;SDS011;25589;51.552;13.424;2022-10-17T09:04:00;19.20;;;13.95;;
39918;SDS011;25589;51.552;13.424;2022-10-17T09:06:35;19.85;;;14.10;;
39918;SDS011;25589;51.552;13.424;2022-10-17T09:09:26;21.73;;;13.73;;
39918;SDS011;25589;51.552;13.424;2022-10-17T09:18:17;18.45;;;13.65;;
39918;SDS011;25589;51.552;13.424;2022-10-17T09:20:53;18.92;;;13.23;;
39918;SDS011;25589;51.552;13.424;2022-10-17T09:23:24;19.17;;;13.68;;
39918;SDS011;25589;51.552;13.424;2022-10-17T09:25:54;18.23;;;13.10;;
39918;SDS011;25589;51.552;13.424;2022-10-17T09:28:24;19.88;;;13.32;;
39918;SDS011;25589;51.552;13.424;2022-10-17T09:33:25;19.10;;;12.77;;
39918;SDS011;25589;51.552;13.424;2022-10-17T09:35:53;17.27;;;12.23;;
39918;SDS011;25589;51.552;13.424;2022-10-17T09:38:21;16.67;;;11.65;;
39918;SDS011;25589;51.552;13.424;2022-10-17T09:40:54;21.13;;;13.25;;
39918;SDS011;25589;51.552;13.424;2022-10-17T09:43:23;14.05;;;11.07;;
39918;SDS011;25589;51.552;13.424;2022-10-17T09:46:35;21.00;;;12.38;;
39918;SDS011;25589;51.552;13.424;2022-10-17T09:48:55;16.63;;;12.18;;
39918;SDS011;25589;51.552;13.424;2022-10-17T09:51:25;17.50;;;12.30;;
39918;SDS011;25589;51.552;13.424;2022-10-17T09:53:55;18.10;;;12.07;;
39918;SDS011;25589;51.552;13.424;2022-10-17T09:56:25;15.20;;;11.80;;
39918;SDS011;25589;51.552;13.424;2022-10-17T09:58:57;15.95;;;11.73;;
39918;SDS011;25589;51.552;13.424;2022-10-17T10:01:26;17.60;;;12.40;;
39918;SDS011;25589;51.552;13.424;2022-10-17T10:06:35;16.08;;;12.05;;
39918;SDS011;25589;51.552;13.424;2022-10-17T10:09:02;15.57;;;11.32;;
39918;SDS011;25589;51.552;13.424;2022-10-17T10:11:46;17.17;;;11.07;;
39918;SDS011;25589;51.552;13.424;2022-10-17T10:14:23;15.13;;;11.10;;
39918;SDS011;25589;51.552;13.424;2022-10-17T10:16:57;13.63;;;11.20;;
39918;SDS011;25589;51.552;13.424;2022-10-17T10:19:28;14.15;;;11.07;;
39918;SDS011;25589;51.552;13.424;2022-10-17T10:21:56;19.35;;;12.30;;
39918;SDS011;25589;51.552;13.424;2022-10-17T10:24:24;14.30;;;11.57;;
39918;SDS011;25589;51.552;13.424;2022-10-17T10:26:51;20.38;;;13.93;;
39918;SDS011;25589;51.552;13.424;2022-10-17T10:29:23;17.60;;;11.93;;
39918;SDS011;25589;51.552;13.424;2022-10-17T10:32:15;15.70;;;12.63;;
39918;SDS011;25589;51.552;13.424;2022-10-17T10:34:48;14.65;;;10.75;;
39918;SDS011;25589;51.552;13.424;2022-10-17T10:42:20;14.43;;;10.13;;
39918;SDS011;25589;51.552;13.424;2022-10-17T10:44:53;11.90;;;9.27;;
39918;SDS011;25589;51.552;13.424;2022-10-17T10:47:23;11.55;;;8.70;;
39918;SDS011;25589;51.552;13.424;2022-10-17T10:49:51;13.50;;;9.65;;
39918;SDS011;25589;51.552;13.424;2022-10-17T10:52:33;13.75;;;8.68;;
39918;SDS011;25589;51.552;13.424;2022-10-17T10:55:15;10.73;;;8.48;;
39918;SDS011;25589;51.552;13.424;2022-10-17T10:57:46;11.52;;;8.23;;
39918;SDS011;25589;51.552;13.424;2022-10-17T11:00:15;11.73;;;8.43;;
39918;SDS011;25589;51.552;13.424;2022-10-17T11:02:48;9.77;;;7.93;;
39918;SDS011;25589;51.552;13.424;2022-10-17T11:08:14;12.27;;;8.80;;
39918;SDS011;25589;51.552;13.424;2022-10-17T11:14:05;11.85;;;9.20;;
39918;SDS011;25589;51.552;13.424;2022-10-17T11:22:52;13.40;;;9.00;;
39918;SDS011;25589;51.552;13.424;2022-10-17T11:25:43;13.48;;;9.63;;
39918;SDS011;25589;51.552;13.424;2022-10-17T11:28:14;14.88;;;10.45;;
39918;SDS011;25589;51.552;13.424;2022-10-17T11:30:45;13.48;;;8.98;;
39918;SDS011;25589;51.552;13.424;2022-10-17T11:33:28;9.23;;;6.57;;
39918;SDS011;25589;51.552;13.424;2022-10-17T11:36:04;11.77;;;8.35;;
39918;SDS011;25589;51.552;13.424;2022-10-17T11:38:37;10.80;;;8.57;;
39918;SDS011;25589;51.552;13.424;2022-10-17T11:41:09;11.00;;;9.25;;
39918;SDS011;25589;51.552;13.424;2022-10-17T11:43:41;12.23;;;7.65;;
39918;SDS011;25589;51.552;13.424;2022-10-17T11:46:20;14.50;;;9.02;;
39918;SDS011;25589;51.552;13.424;2022-10-17T11:48:56;13.65;;;8.85;;
39918;SDS011;25589;51.552;13.424;2022-10-17T11:51:22;14.20;;;8.20;;
39918;SDS011;25589;51.552;13.424;2022-10-17T11:59:40;12.65;;;8.30;;
39918;SDS011;25589;51.552;13.424;2022-10-17T12:05:24;11.60;;;8.38;;
39918;SDS011;25589;51.552;13.424;2022-10-17T12:08:08;10.07;;;7.82;;
39918;SDS011;25589;51.552;13.424;2022-10-17T12:16:36;20.85;;;8.82;;
39918;SDS011;25589;51.552;13.424;2022-10-17T12:18:48;10.95;;;8.85;;
39918;SDS011;25589;51.552;13.424;2022-10-17T12:21:27;15.15;;;9.80;;
39918;SDS011;25589;51.552;13.424;2022-10-17T12:23:53;13.95;;;9.30;;
39918;SDS011;25589;51.552;13.424;2022-10-17T12:26:25;16.08;;;9.35;;
39918;SDS011;25589;51.552;13.424;2022-10-17T12:28:52;17.52;;;10.73;;
39918;SDS011;25589;51.552;13.424;2022-10-17T12:33:58;14.93;;;10.68;;
39918;SDS011;25589;51.552;13.424;2022-10-17T12:46:40;11.40;;;9.13;;
39918;SDS011;25589;51.552;13.424;2022-10-17T12:49:35;16.67;;;10.13;;
39918;SDS011;25589;51.552;13.424;2022-10-17T12:55:05;12.40;;;9.88;;
39918;SDS011;25589;51.552;13.424;2022-10-17T13:00:28;14.35;;;8.93;;
39918;SDS011;25589;51.552;13.424;2022-10-17T13:03:02;14.23;;;9.63;;
39918;SDS011;25589;51.552;13.424;2022-10-17T13:05:32;15.45;;;10.15;;
39918;SDS011;25589;51.552;13.424;2022-10-17T13:08:01;15.88;;;11.43;;
39918;SDS011;25589;51.552;13.424;2022-10-17T13:10:31;13.50;;;9.77;;
39918;SDS011;25589;51.552;13.424;2022-10-17T13:13:09;12.30;;;9.45;;
39918;SDS011;25589;51.552;13.424;2022-10-17T13:15:47;14.68;;;10.07;;
39918;SDS011;25589;51.552;13.424;2022-10-17T13:18:17;15.23;;;9.38;;
39918;SDS011;25589;51.552;13.424;2022-10-17T13:20:57;14.82;;;9.52;;
39918;SDS011;25589;51.552;13.424;2022-10-17T13:23:29;10.30;;;8.80;;
39918;SDS011;25589;51.552;13.424;2022-10-17T13:28:34;13.18;;;9.20;;
39918;SDS011;25589;51.552;13.424;2022-10-17T13:31:00;14.43;;;9.52;;
39918;SDS011;25589;51.552;13.424;2022-10-17T13:33:34;9.77;;;8.35;;
39918;SDS011;25589;51.552;13.424;2022-10-17T13:36:05;11.18;;;8.45;;
39918;SDS011;25589;51.552;13.424;2022-10-17T13:38:37;11.60;;;8.70;;
39918;SDS011;25589;51.552;13.424;2022-10-17T13:41:03;12.00;;;8.40;;
39918;SDS011;25589;51.552;13.424;2022-10-17T13:43:36;10.90;;;8.30;;
39918;SDS011;25589;51.552;13.424;2022-10-17T13:46:02;14.07;;;8.95;;
39918;SDS011;25589;51.552;13.424;2022-10-17T13:48:30;10.88;;;8.30;;
39918;SDS011;25589;51.552;13.424;2022-10-17T13:50:59;10.00;;;8.73;;
39918;SDS011;25589;51.552;13.424;2022-10-17T13:53:33;11.15;;;7.93;;
39918;SDS011;25589;51.552;13.424;2022-10-17T13:58:44;12.80;;;8.13;;
39918;SDS011;25589;51.552;13.424;2022-10-17T14:01:20;10.13;;;8.25;;
39918;SDS011;25589;51.552;13.424;2022-10-17T14:03:46;13.10;;;8.27;;
39918;SDS011;25589;51.552;13.424;2022-10-17T14:06:13;10.48;;;8.63;;
39918;SDS011;25589;51.552;13.424;2022-10-17T14:11:21;11.80;;;8.52;;
39918;SDS011;25589;51.552;13.424;2022-10-17T14:13:49;14.50;;;8.93;;
39918;SDS011;25589;51.552;13.424;2022-10-17T14:16:17;17.23;;;8.80;;
39918;SDS011;25589;51.552;13.424;2022-10-17T14:18:45;16.20;;;8.45;;
39918;SDS011;25589;51.552;13.424;2022-10-17T14:21:17;12.32;;;8.35;;
39918;SDS011;25589;51.552;13.424;2022-10-17T14:23:48;12.85;;;8.40;;
39918;SDS011;25589;51.552;13.424;2022-10-17T14:28:44;11.95;;;8.63;;
39918;SDS011;25589;51.552;13.424;2022-10-17T14:31:23;14.00;;;8.40;;
39918;SDS011;25589;51.552;13.424;2022-10-17T14:33:52;12.57;;;9.05;;
39918;SDS011;25589;51.552;13.424;2022-10-17T14:36:19;12.70;;;10.05;;
39918;SDS011;25589;51.552;13.424;2022-10-17T14:38:53;10.48;;;8.85;;
39918;SDS011;25589;51.552;13.424;2022-10-17T14:41:25;14.25;;;9.38;;
39918;SDS011;25589;51.552;13.424;2022-10-17T14:43:57;14.07;;;10.05;;
39918;SDS011;25589;51.552;13.424;2022-10-17T14:46:25;15.80;;;9.82;;
39918;SDS011;25589;51.552;13.424;2022-10-17T14:48:52;12.00;;;9.68;;
39918;SDS011;25589;51.552;13.424;2022-10-17T14:51:20;15.93;;;10.75;;
39918;SDS011;25589;51.552;13.424;2022-10-17T14:54:00;13.02;;;9.40;;
39918;SDS011;25589;51.552;13.424;2022-10-17T14:57:06;14.55;;;9.90;;
39918;SDS011;25589;51.552;13.424;2022-10-17T14:59:20;12.68;;;10.43;;
39918;SDS011;25589;51.552;13.424;2022-10-17T15:01:50;12.30;;;9.95;;
39918;SDS011;25589;51.552;13.424;2022-10-17T15:04:16;12.85;;;9.65;;
39918;SDS011;25589;51.552;13.424;2022-10-17T15:06:42;13.48;;;10.38;;
39918;SDS011;25589;51.552;13.424;2022-10-17T15:09:09;14.70;;;10.75;;
39918;SDS011;25589;51.552;13.424;2022-10-17T15:11:35;11.23;;;8.98;;
39918;SDS011;25589;51.552;13.424;2022-10-17T15:14:00;10.88;;;8.68;;
39918;SDS011;25589;51.552;13.424;2022-10-17T15:16:29;16.00;;;9.57;;
39918;SDS011;25589;51.552;13.424;2022-10-17T15:18:56;13.05;;;8.73;;
39918;SDS011;25589;51.552;13.424;2022-10-17T15:21:22;12.70;;;8.70;;
39918;SDS011;25589;51.552;13.424;2022-10-17T15:23:49;11.43;;;9.23;;
39918;SDS011;25589;51.552;13.424;2022-10-17T15:28:50;12.75;;;10.40;;
39918;SDS011;25589;51.552;13.424;2022-10-17T15:31:17;12.25;;;9.85;;
39918;SDS011;25589;51.552;13.424;2022-10-17T15:33:44;15.27;;;9.98;;
39918;SDS011;25589;51.552;13.424;2022-10-17T15:36:21;15.90;;;10.30;;
39918;SDS011;25589;51.552;13.424;2022-10-17T15:38:52;14.55;;;10.00;;
39918;SDS011;25589;51.552;13.424;2022-10-17T15:41:20;17.27;;;11.20;;
39918;SDS011;25589;51.552;13.424;2022-10-17T15:43:47;14.23;;;10.73;;
39918;SDS011;25589;51.552;13.424;2022-10-17T15:46:14;16.63;;;11.48;;
39918;SDS011;25589;51.552;13.424;2022-10-17T15:48:42;15.38;;;12.15;;
39918;SDS011;25589;51.552;13.424;2022-10-17T15:51:09;16.67;;;11.63;;
39918;SDS011;25589;51.552;13.424;2022-10-17T15:53:35;14.25;;;11.38;;
39918;SDS011;25589;51.552;13.424;2022-10-17T15:56:00;15.75;;;10.98;;
39918;SDS011;25589;51.552;13.424;2022-10-17T15:58:29;18.20;;;11.75;;
39918;SDS011;25589;51.552;13.424;2022-10-17T16:00:59;15.15;;;11.55;;
39918;SDS011;25589;51.552;13.424;2022-10-17T16:03:25;17.90;;;12.20;;
39918;SDS011;25589;51.552;13.424;2022-10-17T16:05:52;14.60;;;12.30;;
39918;SDS011;25589;51.552;13.424;2022-10-17T16:08:17;13.57;;;11.45;;
39918;SDS011;25589;51.552;13.424;2022-10-17T16:10:43;14.23;;;11.82;;
39918;SDS011;25589;51.552;13.424;2022-10-17T16:13:16;15.00;;;12.30;;
39918;SDS011;25589;51.552;13.424;2022-10-17T16:15:43;16.10;;;11.77;;
39918;SDS011;25589;51.552;13.424;2022-10-17T16:18:09;19.58;;;14.35;;
39918;SDS011;25589;51.552;13.424;2022-10-17T16:20:34;43.38;;;34.33;;
39918;SDS011;25589;51.552;13.424;2022-10-17T16:23:00;34.75;;;29.83;;
39918;SDS011;25589;51.552;13.424;2022-10-17T16:25:28;34.83;;;29.95;;
39918;SDS011;25589;51.552;13.424;2022-10-17T16:27:56;28.88;;;22.50;;
39918;SDS011;25589;51.552;13.424;2022-10-17T16:30:23;27.67;;;13.35;;